createdAt,value
2023-05-16T00:00:46.341Z,90538.66
2023-05-16T00:03:12.894Z,90541.91
2023-05-16T00:05:39.453Z,90539.06
2023-05-16T00:08:06.338Z,90533.53
2023-05-16T00:10:32.812Z,90532.69
2023-05-16T00:13:01.828Z,90535.97
2023-05-16T00:15:30.070Z,90535.25
2023-05-16T00:17:59.502Z,90531.13
2023-05-16T00:20:28.121Z,90536.38
2023-05-16T00:22:55.372Z,90524.19
2023-05-16T00:25:23.401Z,90526.75
2023-05-16T00:27:49.843Z,90526.75
2023-05-16T00:30:16.345Z,90525.19
2023-05-16T00:32:43.264Z,90524.47
2023-05-16T00:35:11.492Z,90529.16
2023-05-16T00:37:38.677Z,90523.63
2023-05-16T00:40:05.798Z,90523.63
2023-05-16T00:42:32.452Z,90528.91
2023-05-16T00:44:58.999Z,90521.34
2023-05-16T00:47:25.536Z,90520.66
2023-05-16T00:49:52.103Z,90526.03
2023-05-16T00:52:18.738Z,90520.53
2023-05-16T00:54:45.374Z,90526.47
2023-05-16T00:57:11.901Z,90525.19
2023-05-16T00:59:38.424Z,90516.28
2023-05-16T01:02:05.091Z,90516.13
2023-05-16T01:04:32.394Z,90509.88
2023-05-16T01:06:58.915Z,90509.75
2023-05-16T01:09:25.588Z,90511.03
2023-05-16T01:12:01.735Z,90506.19
2023-05-16T01:14:42.533Z,90503.50
2023-05-16T01:17:20.434Z,90496.69
2023-05-16T01:20:15.512Z,90495.84
2023-05-16T01:23:00.176Z,90493.72
2023-05-16T01:25:35.466Z,90491.03
2023-05-16T01:28:02.699Z,90488.91
2023-05-16T01:30:34.006Z,90488.91
2023-05-16T01:33:00.798Z,90484.06
2023-05-16T01:35:28.263Z,90481.94
2023-05-16T01:38:05.726Z,90483.94
2023-05-16T01:40:45.364Z,90483.22
2023-05-16T01:43:17.091Z,90485.78
2023-05-16T01:45:51.227Z,90482.41
2023-05-16T01:48:22.586Z,90478.84
2023-05-16T01:50:55.330Z,90476.72
2023-05-16T01:53:28.218Z,90481.41
2023-05-16T01:55:57.492Z,90474.59
2023-05-16T01:58:28.287Z,90473.19
2023-05-16T02:01:01.701Z,90475.16
2023-05-16T02:03:28.246Z,90476.44
2023-05-16T02:05:54.760Z,90480.41
2023-05-16T02:08:21.575Z,90472.19
2023-05-16T02:10:47.979Z,90478.13
2023-05-16T02:13:14.330Z,90467.94
2023-05-16T02:15:40.884Z,90465.94
2023-05-16T02:18:07.442Z,90474.03
2023-05-16T02:20:34.029Z,90474.59
2023-05-16T02:23:00.351Z,90473.91
2023-05-16T02:25:27.022Z,90474.31
2023-05-16T02:27:53.691Z,90473.59
2023-05-16T02:30:20.305Z,90476.13
2023-05-16T02:32:46.866Z,90474.00
2023-05-16T02:35:13.306Z,90468.47
2023-05-16T02:37:40.167Z,90463.78
2023-05-16T02:40:07.989Z,90462.38
2023-05-16T02:42:34.493Z,90460.25
2023-05-16T02:45:00.891Z,90457.56
2023-05-16T02:47:27.437Z,90461.53
2023-05-16T02:49:53.939Z,90454.03
2023-05-16T02:52:20.406Z,90461.41
2023-05-16T02:54:59.874Z,90456.59
2023-05-16T02:57:30.972Z,90457.13
2023-05-16T02:59:57.294Z,90455.84
2023-05-16T03:02:23.794Z,90446.22
2023-05-16T03:04:50.341Z,90443.53
2023-05-16T03:07:16.763Z,90441.41
2023-05-16T03:09:43.236Z,90441.97
2023-05-16T03:12:09.603Z,90440.69
2023-05-16T03:14:36.248Z,90435.88
2023-05-16T03:17:02.734Z,90437.88
2023-05-16T03:19:29.142Z,90434.44
2023-05-16T03:21:55.649Z,90439.13
2023-05-16T03:24:23.080Z,90435.00
2023-05-16T03:26:49.897Z,90433.59
2023-05-16T03:29:16.416Z,90432.91
2023-05-16T03:31:42.818Z,90423.41
2023-05-16T03:34:09.287Z,90422.69
2023-05-16T03:36:35.908Z,90422.00
2023-05-16T03:39:02.456Z,90418.44
2023-05-16T03:41:29.320Z,90427.78
2023-05-16T03:43:55.797Z,90417.59
2023-05-16T03:46:22.236Z,90420.84
2023-05-16T03:48:48.741Z,90421.41
2023-05-16T03:51:15.096Z,90422.00
2023-05-16T03:53:41.866Z,90421.84
2023-05-16T03:56:08.377Z,90423.13
2023-05-16T03:58:34.699Z,90422.97
2023-05-16T04:01:01.160Z,90412.78
2023-05-16T04:03:28.862Z,90418.75
2023-05-16T04:05:56.241Z,90415.88
2023-05-16T04:08:22.944Z,90419.16
2023-05-16T04:10:49.352Z,90417.03
2023-05-16T04:13:16.239Z,90414.34
2023-05-16T04:15:42.750Z,90423.69
2023-05-16T04:18:09.407Z,90419.00
2023-05-16T04:20:36.672Z,90418.13
2023-05-16T04:23:03.101Z,90426.09
2023-05-16T04:25:29.736Z,90423.38
2023-05-16T04:27:57.296Z,90417.88
2023-05-16T04:30:25.097Z,90422.53
2023-05-16T04:32:52.110Z,90421.13
2023-05-16T04:35:18.645Z,90421.13
2023-05-16T04:37:45.022Z,90429.91
2023-05-16T04:40:13.154Z,90420.41
2023-05-16T04:42:39.642Z,90422.94
2023-05-16T04:45:06.763Z,90423.66
2023-05-16T04:47:33.402Z,90426.22
2023-05-16T04:49:59.901Z,90426.78
2023-05-16T04:52:26.279Z,90418.72
2023-05-16T04:54:52.798Z,90424.66
2023-05-16T04:57:19.188Z,90423.38
2023-05-16T04:59:45.861Z,90421.25
2023-05-16T05:02:12.677Z,90425.22
2023-05-16T05:04:39.173Z,90425.22
2023-05-16T05:07:05.631Z,90421.09
2023-05-16T05:09:32.057Z,90425.78
2023-05-16T05:11:58.516Z,90431.88
2023-05-16T05:14:24.870Z,90426.47
2023-05-16T05:16:51.346Z,90427.22
2023-05-16T05:19:17.814Z,90426.22
2023-05-16T05:21:44.321Z,90426.50
2023-05-16T05:24:11.413Z,90428.78
2023-05-16T05:26:37.903Z,90424.25
2023-05-16T05:29:06.042Z,90424.53
2023-05-16T05:31:34.662Z,90428.06
2023-05-16T05:34:01.390Z,90420.00
2023-05-16T05:36:27.852Z,90423.25
2023-05-16T05:38:54.419Z,90420.56
2023-05-16T05:41:22.347Z,90423.97
2023-05-16T05:43:49.292Z,90421.97
2023-05-16T05:46:16.959Z,90420.69
2023-05-16T05:48:43.694Z,90418.44
2023-05-16T05:51:10.227Z,90421.13
2023-05-16T05:53:36.852Z,90418.44
2023-05-16T05:56:03.332Z,90421.13
2023-05-16T05:58:29.700Z,90414.47
2023-05-16T06:00:56.449Z,90412.47
2023-05-16T06:03:23.205Z,90419.16
2023-05-16T06:05:49.853Z,90421.00
2023-05-16T06:08:16.376Z,90412.06
2023-05-16T06:10:42.728Z,90420.69
2023-05-16T06:13:09.311Z,90417.88
2023-05-16T06:15:35.882Z,90418.28
2023-05-16T06:18:02.400Z,90417.44
2023-05-16T06:20:28.858Z,90422.69
2023-05-16T06:22:55.453Z,90419.84
2023-05-16T06:25:22.030Z,90424.38
2023-05-16T06:27:48.606Z,90416.72
2023-05-16T06:30:15.891Z,90418.00
2023-05-16T06:32:42.312Z,90417.13
2023-05-16T06:35:09.687Z,90408.91
2023-05-16T06:37:36.224Z,90419.53
2023-05-16T06:40:02.708Z,90417.41
2023-05-16T06:42:29.204Z,90417.25
2023-05-16T06:44:55.609Z,90418.53
2023-05-16T06:47:22.203Z,90424.31
2023-05-16T06:49:48.935Z,90404.78
2023-05-16T06:52:15.467Z,90412.69
2023-05-16T06:54:41.981Z,90411.25
2023-05-16T06:57:09.497Z,90415.94
2023-05-16T06:59:36.692Z,90413.69
2023-05-16T07:02:03.199Z,90415.66
2023-05-16T07:04:29.610Z,90416.19
2023-05-16T07:06:56.215Z,90412.09
2023-05-16T07:09:22.677Z,90404.59
2023-05-16T07:11:49.016Z,90407.84
2023-05-16T07:14:15.581Z,90421.88
2023-05-16T07:16:42.130Z,90414.38
2023-05-16T07:19:08.652Z,90412.94
2023-05-16T07:21:35.248Z,90408.81
2023-05-16T07:24:01.734Z,90410.81
2023-05-16T07:26:28.150Z,90408.69
2023-05-16T07:28:55.154Z,90412.66
2023-05-16T07:31:21.863Z,90414.50
2023-05-16T07:33:49.125Z,90406.25
2023-05-16T07:36:17.591Z,90405.53
2023-05-16T07:38:45.111Z,90408.09
2023-05-16T07:41:11.747Z,90404.69
2023-05-16T07:43:38.188Z,90405.28
2023-05-16T07:46:05.461Z,90419.25
2023-05-16T07:48:31.951Z,90413.16
2023-05-16T07:50:58.390Z,90411.03
2023-05-16T07:53:24.882Z,90420.38
2023-05-16T07:55:51.351Z,90419.69
2023-05-16T07:58:17.935Z,90420.25
2023-05-16T08:00:44.407Z,90415.44
2023-05-16T08:03:10.954Z,90418.13
2023-05-16T08:05:37.569Z,90411.31
2023-05-16T08:08:04.117Z,90414.31
2023-05-16T08:10:30.711Z,90410.19
2023-05-16T08:12:57.248Z,90413.59
2023-05-16T08:15:23.811Z,90424.34
2023-05-16T08:17:51.038Z,90410.91
2023-05-16T08:20:17.621Z,90413.16
2023-05-16T08:22:44.072Z,90418.16
2023-05-16T08:25:10.656Z,90416.44
2023-05-16T08:27:37.139Z,90415.91
2023-05-16T08:30:03.737Z,90419.44
2023-05-16T08:32:30.246Z,90420.16
2023-05-16T08:34:56.861Z,90414.91
2023-05-16T08:37:23.212Z,90425.84
2023-05-16T08:39:49.685Z,90424.00
2023-05-16T08:42:16.042Z,90429.50
2023-05-16T08:46:04.125Z,90425.00
2023-05-16T08:48:53.291Z,90430.53
2023-05-16T08:51:38.510Z,90420.63
2023-05-16T08:54:25.654Z,90427.41
2023-05-16T08:57:13.953Z,90433.66
2023-05-16T09:00:00.778Z,90421.63
2023-05-16T09:02:46.391Z,90423.75
2023-05-16T09:05:32.047Z,90420.50
2023-05-16T09:08:17.767Z,90413.16
2023-05-16T09:11:03.825Z,90413.69
2023-05-16T09:13:49.418Z,90417.66
2023-05-16T09:16:34.517Z,90419.63
2023-05-16T09:19:19.714Z,90420.91
2023-05-16T09:22:07.349Z,90432.94
2023-05-16T09:24:53.628Z,90441.03
2023-05-16T09:27:38.624Z,90447.66
2023-05-16T09:30:29.294Z,90448.94
2023-05-16T09:33:14.377Z,90441.28
2023-05-16T09:36:00.781Z,90440.16
2023-05-16T09:38:46.222Z,90438.16
2023-05-16T09:41:35.786Z,90431.09
2023-05-16T09:44:20.766Z,90425.19
2023-05-16T09:47:06.613Z,90427.47
2023-05-16T09:49:53.772Z,90421.66
2023-05-16T09:52:39.021Z,90423.38
2023-05-16T09:55:24.037Z,90433.72
2023-05-16T09:58:08.956Z,90425.50
2023-05-16T10:00:56.168Z,90429.47
2023-05-16T10:03:43.955Z,90426.09
2023-05-16T10:06:29.557Z,90436.88
2023-05-16T10:09:16.479Z,90435.59
2023-05-16T10:12:04.195Z,90436.28
2023-05-16T10:14:50.372Z,90432.63
2023-05-16T10:17:39.582Z,90440.56
2023-05-16T10:20:26.800Z,90428.44
2023-05-16T10:23:17.355Z,90444.00
2023-05-16T10:26:04.068Z,90447.91
2023-05-16T10:28:50.710Z,90456.53
2023-05-16T10:31:37.057Z,90452.19
2023-05-16T10:34:23.111Z,90458.38
2023-05-16T10:37:08.833Z,90462.00
2023-05-16T10:39:54.504Z,90458.09
2023-05-16T10:42:39.418Z,90460.88
2023-05-16T10:45:25.070Z,90461.66
2023-05-16T10:48:12.589Z,90455.63
2023-05-16T10:50:57.984Z,90455.66
2023-05-16T10:53:43.981Z,90456.97
2023-05-16T10:56:29.148Z,90453.03
2023-05-16T10:59:24.964Z,90451.13
2023-05-16T11:02:23.061Z,90457.84
2023-05-16T11:05:14.069Z,90461.03
2023-05-16T11:08:06.663Z,90453.41
2023-05-16T11:11:31.375Z,90451.31
2023-05-16T11:14:24.399Z,90457.91
2023-05-16T11:17:13.342Z,90457.69
2023-05-16T11:19:59.657Z,90462.28
2023-05-16T11:22:45.023Z,90460.78
2023-05-16T11:25:41.056Z,90461.25
2023-05-16T11:28:27.284Z,90465.72
2023-05-16T11:31:12.312Z,90466.78
2023-05-16T11:33:57.543Z,90468.53
2023-05-16T11:36:43.073Z,90462.03
2023-05-16T11:39:30.700Z,90464.41
2023-05-16T11:42:16.232Z,90464.06
2023-05-16T11:45:06.731Z,90461.00
2023-05-16T11:47:52.052Z,90463.31
2023-05-16T11:50:38.043Z,90466.47
2023-05-16T11:53:23.366Z,90470.16
2023-05-16T11:56:08.911Z,90464.38
2023-05-16T11:58:54.524Z,90467.44
2023-05-16T12:01:40.128Z,90467.03
2023-05-16T12:04:25.399Z,90482.94
2023-05-16T12:07:10.651Z,90483.88
2023-05-16T12:09:55.418Z,90493.03
2023-05-16T12:12:44.913Z,90491.38
2023-05-16T12:15:30.874Z,90489.69
2023-05-16T12:18:17.221Z,90500.88
2023-05-16T12:21:02.652Z,90499.91
2023-05-16T12:23:47.837Z,90500.84
2023-05-16T12:26:33.681Z,90500.38
2023-05-16T12:29:21.622Z,90495.19
2023-05-16T12:32:09.128Z,90503.44
2023-05-16T12:34:54.735Z,90503.53
2023-05-16T12:37:39.714Z,90502.94
2023-05-16T12:40:28.904Z,90513.09
2023-05-16T12:43:15.925Z,90515.19
2023-05-16T12:46:01.074Z,90515.19
2023-05-16T12:48:48.034Z,90520.63
2023-05-16T12:51:35.375Z,90519.22
2023-05-16T12:54:22.685Z,90525.94
2023-05-16T12:57:10.133Z,90530.56
2023-05-16T12:59:55.153Z,90525.03
2023-05-16T13:02:40.792Z,90527.03
2023-05-16T13:05:26.146Z,90525.59
2023-05-16T13:08:11.279Z,90526.81
2023-05-16T13:10:56.857Z,90529.41
2023-05-16T13:13:41.963Z,90527.25
2023-05-16T13:16:27.252Z,90527.06
2023-05-16T13:19:12.559Z,90540.28
2023-05-16T13:21:57.916Z,90535.69
2023-05-16T13:24:42.897Z,90544.91
2023-05-16T13:27:27.976Z,90544.56
2023-05-16T13:30:13.700Z,90544.34
2023-05-16T13:32:59.080Z,90546.00
2023-05-16T13:35:44.649Z,90542.25
2023-05-16T13:38:29.733Z,90555.69
2023-05-16T13:41:14.626Z,90554.03
2023-05-16T13:44:00.021Z,90548.41
2023-05-16T13:46:45.878Z,90561.69
2023-05-16T13:49:30.869Z,90559.31
2023-05-16T13:52:16.334Z,90561.09
2023-05-16T13:55:01.575Z,90566.28
2023-05-16T13:57:46.322Z,90564.66
2023-05-16T14:00:43.421Z,90564.41
2023-05-16T14:03:30.200Z,90568.19
2023-05-16T14:06:15.533Z,90569.94
2023-05-16T14:09:00.764Z,90564.25
2023-05-16T14:11:45.778Z,90572.16
2023-05-16T14:14:30.959Z,90567.09
2023-05-16T14:17:16.115Z,90577.09
2023-05-16T14:20:01.428Z,90572.03
2023-05-16T14:22:46.717Z,90585.34
2023-05-16T14:25:32.014Z,90578.97
2023-05-16T14:28:17.113Z,90580.72
2023-05-16T14:31:02.565Z,90588.59
2023-05-16T14:33:47.505Z,90575.97
2023-05-16T14:36:32.957Z,90585.97
2023-05-16T14:39:18.294Z,90580.88
2023-05-16T14:42:05.148Z,90588.03
2023-05-16T14:44:51.318Z,90587.81
2023-05-16T14:47:36.413Z,90590.25
2023-05-16T14:50:21.862Z,90584.44
2023-05-16T14:53:07.103Z,90588.34
2023-05-16T14:55:52.143Z,90581.97
2023-05-16T14:58:37.244Z,90585.13
2023-05-16T15:01:22.522Z,90588.97
2023-05-16T15:04:07.809Z,90586.75
2023-05-16T15:06:52.824Z,90587.91
2023-05-16T15:09:37.667Z,90583.66
2023-05-16T15:12:22.668Z,90593.66
2023-05-16T15:15:11.915Z,90598.09
2023-05-16T15:17:58.151Z,90606.06
2023-05-16T15:20:43.578Z,90600.53
2023-05-16T15:23:28.600Z,90600.25
2023-05-16T15:26:13.376Z,90591.31
2023-05-16T15:28:58.382Z,90597.31
2023-05-16T15:31:43.540Z,90603.16
2023-05-16T15:34:28.977Z,90600.91
2023-05-16T15:37:14.068Z,90607.44
2023-05-16T15:39:58.949Z,90603.22
2023-05-16T15:42:44.838Z,90598.28
2023-05-16T15:45:30.186Z,90594.72
2023-05-16T15:48:15.605Z,90599.88
2023-05-16T15:51:01.078Z,90602.41
2023-05-16T15:53:47.778Z,90603.00
2023-05-16T15:56:32.868Z,90599.72
2023-05-16T15:59:17.744Z,90603.13
2023-05-16T16:02:05.385Z,90597.16
2023-05-16T16:04:51.702Z,90604.81
2023-05-16T16:07:36.731Z,90609.50
2023-05-16T16:10:22.730Z,90606.09
2023-05-16T16:13:07.775Z,90612.69
2023-05-16T16:15:52.936Z,90615.09
2023-05-16T16:18:38.299Z,90616.97
2023-05-16T16:23:26.030Z,90609.44
2023-05-16T16:26:10.949Z,90612.72
2023-05-16T16:29:04.052Z,90614.72
2023-05-16T16:31:49.111Z,90615.28
2023-05-16T16:34:34.178Z,90609.19
2023-05-16T16:37:19.354Z,90610.34
2023-05-16T16:40:07.050Z,90617.47
2023-05-16T16:42:51.936Z,90617.06
2023-05-16T16:45:37.294Z,90618.94
2023-05-16T16:48:37.734Z,90618.09
2023-05-16T16:51:22.982Z,90617.38
2023-05-16T16:54:07.834Z,90620.53
2023-05-16T16:56:52.835Z,90631.91
2023-05-16T16:59:37.705Z,90634.19
2023-05-16T17:02:22.848Z,90637.34
2023-05-16T17:05:10.062Z,90629.06
2023-05-16T17:07:55.198Z,90635.75
2023-05-16T17:10:47.462Z,90635.63
2023-05-16T17:13:14.784Z,90635.63
2023-05-16T17:15:41.405Z,90638.91
2023-05-16T17:18:07.957Z,90640.19
2023-05-16T17:20:35.498Z,90638.63
2023-05-16T17:23:02.562Z,90634.94
2023-05-16T17:25:29.370Z,90642.63
2023-05-16T17:27:56.265Z,90633.41
2023-05-16T17:30:23.407Z,90642.66
2023-05-16T17:32:49.908Z,90634.41
2023-05-16T17:35:16.481Z,90643.66
2023-05-16T17:37:42.980Z,90644.09
2023-05-16T17:40:12.710Z,90637.16
2023-05-16T17:42:39.510Z,90649.81
2023-05-16T17:45:07.078Z,90650.22
2023-05-16T17:47:33.638Z,90647.38
2023-05-16T17:50:00.176Z,90653.19
2023-05-16T17:52:26.681Z,90646.97
2023-05-16T17:54:53.118Z,90647.41
2023-05-16T17:57:19.664Z,90653.34
2023-05-16T17:59:46.169Z,90651.81
2023-05-16T18:02:15.407Z,90658.34
2023-05-16T18:04:42.285Z,90653.50
2023-05-16T18:07:08.718Z,90655.34
2023-05-16T18:09:35.498Z,90653.09
2023-05-16T18:12:02.024Z,90651.50
2023-05-16T18:14:28.507Z,90663.56
2023-05-16T18:16:54.982Z,90655.47
2023-05-16T18:19:21.593Z,90658.88
2023-05-16T18:21:48.143Z,90660.16
2023-05-16T18:24:15.931Z,90667.13
2023-05-16T18:26:44.248Z,90669.84
2023-05-16T18:29:11.225Z,90673.06
2023-05-16T18:31:40.665Z,90679.03
2023-05-16T18:34:07.178Z,90675.50
2023-05-16T18:36:33.631Z,90679.47
2023-05-16T18:39:00.284Z,90682.19
2023-05-16T18:41:27.206Z,90688.28
2023-05-16T18:43:53.673Z,90684.31
2023-05-16T18:46:20.557Z,90685.00
2023-05-16T18:48:47.039Z,90689.13
2023-05-16T18:51:13.567Z,90691.25
2023-05-16T18:53:40.110Z,90702.38
2023-05-16T18:56:06.619Z,90699.94
2023-05-16T18:58:33.099Z,90694.25
2023-05-16T19:00:59.713Z,90696.69
2023-05-16T19:03:26.180Z,90700.66
2023-05-16T19:05:52.838Z,90701.91
2023-05-16T19:08:19.425Z,90710.00
2023-05-16T19:10:45.911Z,90714.13
2023-05-16T19:13:12.396Z,90703.28
2023-05-16T19:15:38.924Z,90706.81
2023-05-16T19:18:06.381Z,90713.66
2023-05-16T19:20:34.460Z,90709.19
2023-05-16T19:23:01.587Z,90712.28
2023-05-16T19:25:28.176Z,90717.34
2023-05-16T19:27:54.677Z,90714.84
2023-05-16T19:30:21.216Z,90719.06
2023-05-16T19:32:47.709Z,90720.44
2023-05-16T19:35:14.183Z,90726.50
2023-05-16T19:37:40.695Z,90725.72
2023-05-16T19:40:07.910Z,90732.38
2023-05-16T19:42:34.377Z,90739.16
2023-05-16T19:45:00.793Z,90736.25
2023-05-16T19:47:28.161Z,90749.72
2023-05-16T19:49:54.710Z,90743.66
2023-05-16T19:52:21.157Z,90745.72
2023-05-16T19:54:47.654Z,90757.88
2023-05-16T19:57:14.133Z,90759.22
2023-05-16T19:59:40.615Z,90761.13
2023-05-16T20:02:07.091Z,90758.91
2023-05-16T20:04:33.652Z,90766.13
2023-05-16T20:07:00.462Z,90770.50
2023-05-16T20:09:28.439Z,90774.88
2023-05-16T20:11:57.208Z,90773.72
2023-05-16T20:14:23.634Z,90775.38
2023-05-16T20:16:50.215Z,90781.06
2023-05-16T20:19:18.952Z,90781.28
2023-05-16T20:21:45.933Z,90791.69
2023-05-16T20:24:12.537Z,90789.34
2023-05-16T20:26:39.062Z,90795.69
2023-05-16T20:29:05.504Z,90792.53
2023-05-16T20:31:32.001Z,90792.06
2023-05-16T20:33:58.581Z,90797.13
2023-05-16T20:36:25.048Z,90798.22
2023-05-16T20:38:51.682Z,90792.31
2023-05-16T20:41:18.243Z,90800.69
2023-05-16T20:43:46.694Z,90796.13
2023-05-16T20:46:13.156Z,90797.06
2023-05-16T20:48:39.627Z,90794.56
2023-05-16T20:51:06.451Z,90800.38
2023-05-16T20:53:32.887Z,90795.28
2023-05-16T20:55:59.330Z,90790.78
2023-05-16T20:58:25.995Z,90795.16
2023-05-16T21:00:52.426Z,90790.56
2023-05-16T21:03:18.882Z,90790.69
2023-05-16T21:05:45.403Z,90787.47
2023-05-16T21:08:11.908Z,90787.59
2023-05-16T21:10:38.358Z,90789.13
2023-05-16T21:13:04.803Z,90791.38
2023-05-16T21:15:31.310Z,90793.47
2023-05-16T21:17:57.933Z,90795.72
2023-05-16T21:20:24.645Z,90800.69
2023-05-16T21:22:51.094Z,90802.78
2023-05-16T21:25:17.519Z,90809.06
2023-05-16T21:27:43.934Z,90801.03
2023-05-16T21:30:10.884Z,90808.56
2023-05-16T21:32:37.309Z,90807.44
2023-05-16T21:35:04.768Z,90807.53
2023-05-16T21:37:31.268Z,90811.06
2023-05-16T21:39:57.728Z,90819.47
2023-05-16T21:42:24.323Z,90820.28
2023-05-16T21:44:50.754Z,90823.78
2023-05-16T21:47:17.277Z,90822.53
2023-05-16T21:49:43.878Z,90828.66
2023-05-16T21:52:10.501Z,90826.75
2023-05-16T21:54:36.982Z,90832.09
2023-05-16T21:57:03.524Z,90838.13
2023-05-16T21:59:30.011Z,90831.94
2023-05-16T22:01:56.455Z,90834.56
2023-05-16T22:04:23.582Z,90835.88
2023-05-16T22:06:50.382Z,90833.75
2023-05-16T22:09:16.798Z,90836.34
2023-05-16T22:11:43.257Z,90840.25
2023-05-16T22:14:09.738Z,90838.13
2023-05-16T22:16:36.256Z,90837.84
2023-05-16T22:19:03.281Z,90843.78
2023-05-16T22:21:29.879Z,90842.25
2023-05-16T22:23:56.319Z,90845.44
2023-05-16T22:26:22.769Z,90847.94
2023-05-16T22:28:49.243Z,90842.84
2023-05-16T22:31:15.687Z,90843.19
2023-05-16T22:33:42.229Z,90840.13
2023-05-16T22:36:08.928Z,90846.63
2023-05-16T22:38:35.504Z,90840.94
2023-05-16T22:41:01.933Z,90848.16
2023-05-16T22:43:28.443Z,90845.91
2023-05-16T22:45:54.897Z,90850.50
2023-05-16T22:48:21.393Z,90844.84
2023-05-16T22:50:47.874Z,90853.47
2023-05-16T22:53:14.294Z,90855.22
2023-05-16T22:55:40.722Z,90850.94
2023-05-16T22:58:07.125Z,90857.41
2023-05-16T23:00:33.719Z,90848.91
2023-05-16T23:03:00.461Z,90845.25
2023-05-16T23:05:27.111Z,90846.28
2023-05-16T23:07:53.685Z,90839.19
2023-05-16T23:10:20.205Z,90845.09
2023-05-16T23:12:46.624Z,90844.84
2023-05-16T23:15:13.356Z,90842.59
2023-05-16T23:17:40.167Z,90848.47
2023-05-16T23:20:07.558Z,90843.78
2023-05-16T23:22:34.140Z,90846.34
2023-05-16T23:25:00.773Z,90846.34
2023-05-16T23:27:27.328Z,90841.53
2023-05-16T23:29:53.760Z,90842.81
2023-05-16T23:32:20.314Z,90847.41
2023-05-16T23:34:46.783Z,90849.28
2023-05-16T23:37:13.288Z,90851.88
2023-05-16T23:39:39.765Z,90852.47
2023-05-16T23:42:06.330Z,90853.50
2023-05-16T23:44:33.598Z,90847.84
2023-05-16T23:47:00.850Z,90844.72
2023-05-16T23:49:27.313Z,90847.88
2023-05-16T23:51:58.045Z,90851.06
2023-05-16T23:54:26.177Z,90851.38
2023-05-16T23:56:52.871Z,90857.25
2023-05-16T23:59:19.601Z,90854.28
